sensor_id;sensor_type;location;lat;lon;timestamp;P1;durP1;ratioP1;P2;durP2;ratioP2
40729;SDS011;26418;50.070;8.436;2023-01-09T00:00:10;4.78;;;2.95;;
40729;SDS011;26418;50.070;8.436;2023-01-09T00:02:37;3.63;;;2.85;;
40729;SDS011;26418;50.070;8.436;2023-01-09T00:05:05;4.68;;;2.75;;
40729;SDS011;26418;50.070;8.436;2023-01-09T00:07:32;4.43;;;3.00;;
40729;SDS011;26418;50.070;8.436;2023-01-09T00:09:57;5.60;;;3.13;;
40729;SDS011;26418;50.070;8.436;2023-01-09T00:12:23;8.88;;;4.50;;
40729;SDS011;26418;50.070;8.436;2023-01-09T00:14:49;4.75;;;3.75;;
40729;SDS011;26418;50.070;8.436;2023-01-09T00:17:14;5.03;;;3.78;;
40729;SDS011;26418;50.070;8.436;2023-01-09T00:19:40;5.55;;;4.07;;
40729;SDS011;26418;50.070;8.436;2023-01-09T00:22:05;6.90;;;3.75;;
40729;SDS011;26418;50.070;8.436;2023-01-09T00:24:33;5.78;;;3.83;;
40729;SDS011;26418;50.070;8.436;2023-01-09T00:27:01;8.05;;;4.53;;
40729;SDS011;26418;50.070;8.436;2023-01-09T00:29:27;6.85;;;5.07;;
40729;SDS011;26418;50.070;8.436;2023-01-09T00:31:53;10.23;;;4.78;;
40729;SDS011;26418;50.070;8.436;2023-01-09T00:34:18;6.97;;;4.95;;
40729;SDS011;26418;50.070;8.436;2023-01-09T00:36:44;7.43;;;5.22;;
40729;SDS011;26418;50.070;8.436;2023-01-09T00:39:09;7.50;;;5.35;;
40729;SDS011;26418;50.070;8.436;2023-01-09T00:41:42;9.18;;;5.88;;
40729;SDS011;26418;50.070;8.436;2023-01-09T00:44:12;8.25;;;5.72;;
40729;SDS011;26418;50.070;8.436;2023-01-09T00:46:48;7.95;;;5.43;;
40729;SDS011;26418;50.070;8.436;2023-01-09T00:49:17;8.35;;;6.13;;
40729;SDS011;26418;50.070;8.436;2023-01-09T00:51:44;8.32;;;5.55;;
40729;SDS011;26418;50.070;8.436;2023-01-09T00:54:11;7.38;;;5.65;;
40729;SDS011;26418;50.070;8.436;2023-01-09T00:56:40;10.05;;;5.55;;
40729;SDS011;26418;50.070;8.436;2023-01-09T00:59:06;10.02;;;6.10;;
40729;SDS011;26418;50.070;8.436;2023-01-09T01:01:32;8.27;;;5.82;;
40729;SDS011;26418;50.070;8.436;2023-01-09T01:03:58;8.52;;;5.85;;
40729;SDS011;26418;50.070;8.436;2023-01-09T01:06:43;8.35;;;5.32;;
40729;SDS011;26418;50.070;8.436;2023-01-09T01:09:27;9.32;;;5.40;;
40729;SDS011;26418;50.070;8.436;2023-01-09T01:11:52;6.95;;;5.35;;
40729;SDS011;26418;50.070;8.436;2023-01-09T01:14:18;6.32;;;5.15;;
40729;SDS011;26418;50.070;8.436;2023-01-09T01:16:43;10.20;;;5.07;;
40729;SDS011;26418;50.070;8.436;2023-01-09T01:19:09;6.70;;;4.40;;
40729;SDS011;26418;50.070;8.436;2023-01-09T01:21:34;5.72;;;4.25;;
40729;SDS011;26418;50.070;8.436;2023-01-09T01:24:00;5.55;;;4.10;;
40729;SDS011;26418;50.070;8.436;2023-01-09T01:26:25;7.13;;;4.80;;
40729;SDS011;26418;50.070;8.436;2023-01-09T01:28:51;7.05;;;3.92;;
40729;SDS011;26418;50.070;8.436;2023-01-09T01:31:17;6.68;;;4.65;;
40729;SDS011;26418;50.070;8.436;2023-01-09T01:33:43;7.80;;;5.13;;
40729;SDS011;26418;50.070;8.436;2023-01-09T01:36:09;12.95;;;6.05;;
40729;SDS011;26418;50.070;8.436;2023-01-09T01:38:35;7.53;;;5.30;;
40729;SDS011;26418;50.070;8.436;2023-01-09T01:41:01;6.85;;;5.05;;
40729;SDS011;26418;50.070;8.436;2023-01-09T01:43:27;7.10;;;5.35;;
40729;SDS011;26418;50.070;8.436;2023-01-09T01:46:12;9.63;;;6.50;;
40729;SDS011;26418;50.070;8.436;2023-01-09T01:48:39;8.95;;;6.15;;
40729;SDS011;26418;50.070;8.436;2023-01-09T01:51:05;12.02;;;7.38;;
40729;SDS011;26418;50.070;8.436;2023-01-09T01:53:40;10.15;;;7.72;;
40729;SDS011;26418;50.070;8.436;2023-01-09T01:56:18;8.38;;;6.60;;
40729;SDS011;26418;50.070;8.436;2023-01-09T02:01:20;12.32;;;7.32;;
40729;SDS011;26418;50.070;8.436;2023-01-09T02:03:47;11.07;;;7.13;;
40729;SDS011;26418;50.070;8.436;2023-01-09T02:06:14;12.20;;;7.18;;
40729;SDS011;26418;50.070;8.436;2023-01-09T02:08:40;9.30;;;6.45;;
40729;SDS011;26418;50.070;8.436;2023-01-09T02:11:06;11.18;;;6.63;;
40729;SDS011;26418;50.070;8.436;2023-01-09T02:13:33;11.00;;;7.38;;
40729;SDS011;26418;50.070;8.436;2023-01-09T02:38:57;13.38;;;5.80;;
40729;SDS011;26418;50.070;8.436;2023-01-09T02:44:19;6.82;;;4.43;;
40729;SDS011;26418;50.070;8.436;2023-01-09T02:46:47;7.47;;;4.50;;
40729;SDS011;26418;50.070;8.436;2023-01-09T02:49:23;8.20;;;4.30;;
40729;SDS011;26418;50.070;8.436;2023-01-09T02:51:50;4.90;;;3.70;;
40729;SDS011;26418;50.070;8.436;2023-01-09T02:57:13;4.93;;;3.40;;
40729;SDS011;26418;50.070;8.436;2023-01-09T03:00:08;5.07;;;3.05;;
40729;SDS011;26418;50.070;8.436;2023-01-09T03:02:47;3.78;;;2.83;;
40729;SDS011;26418;50.070;8.436;2023-01-09T03:05:37;4.53;;;2.55;;
40729;SDS011;26418;50.070;8.436;2023-01-09T03:08:10;5.28;;;1.92;;
40729;SDS011;26418;50.070;8.436;2023-01-09T03:10:41;6.15;;;1.55;;
40729;SDS011;26418;50.070;8.436;2023-01-09T03:13:17;1.55;;;1.10;;
40729;SDS011;26418;50.070;8.436;2023-01-09T03:15:45;2.00;;;0.80;;
40729;SDS011;26418;50.070;8.436;2023-01-09T03:18:15;0.90;;;0.73;;
40729;SDS011;26418;50.070;8.436;2023-01-09T03:20:45;0.90;;;0.60;;
40729;SDS011;26418;50.070;8.436;2023-01-09T03:23:11;1.25;;;0.77;;
40729;SDS011;26418;50.070;8.436;2023-01-09T03:25:37;1.00;;;0.63;;
40729;SDS011;26418;50.070;8.436;2023-01-09T03:28:07;3.25;;;0.55;;
40729;SDS011;26418;50.070;8.436;2023-01-09T03:30:40;0.75;;;0.45;;
40729;SDS011;26418;50.070;8.436;2023-01-09T03:33:06;2.13;;;0.50;;
40729;SDS011;26418;50.070;8.436;2023-01-09T03:35:32;1.77;;;0.20;;
40729;SDS011;26418;50.070;8.436;2023-01-09T03:37:57;2.53;;;0.30;;
40729;SDS011;26418;50.070;8.436;2023-01-09T03:40:23;0.32;;;0.13;;
40729;SDS011;26418;50.070;8.436;2023-01-09T03:42:48;1.02;;;0.20;;
40729;SDS011;26418;50.070;8.436;2023-01-09T03:45:14;0.25;;;0.25;;
40729;SDS011;26418;50.070;8.436;2023-01-09T03:47:40;0.20;;;0.20;;
40729;SDS011;26418;50.070;8.436;2023-01-09T03:50:06;0.63;;;0.30;;
40729;SDS011;26418;50.070;8.436;2023-01-09T03:52:32;0.22;;;0.15;;
40729;SDS011;26418;50.070;8.436;2023-01-09T03:55:00;0.10;;;0.10;;
40729;SDS011;26418;50.070;8.436;2023-01-09T03:57:25;0.45;;;0.22;;
40729;SDS011;26418;50.070;8.436;2023-01-09T03:59:51;0.20;;;0.10;;
40729;SDS011;26418;50.070;8.436;2023-01-09T04:02:16;2.72;;;0.30;;
40729;SDS011;26418;50.070;8.436;2023-01-09T04:04:42;0.20;;;0.20;;
40729;SDS011;26418;50.070;8.436;2023-01-09T04:07:08;0.57;;;0.30;;
40729;SDS011;26418;50.070;8.436;2023-01-09T04:09:33;1.52;;;0.47;;
40729;SDS011;26418;50.070;8.436;2023-01-09T04:11:59;2.28;;;0.70;;
40729;SDS011;26418;50.070;8.436;2023-01-09T04:14:24;5.93;;;3.65;;
40729;SDS011;26418;50.070;8.436;2023-01-09T04:16:50;3.92;;;2.20;;
40729;SDS011;26418;50.070;8.436;2023-01-09T04:19:15;1.83;;;1.10;;
40729;SDS011;26418;50.070;8.436;2023-01-09T04:21:41;1.73;;;0.90;;
40729;SDS011;26418;50.070;8.436;2023-01-09T04:24:07;0.43;;;0.38;;
40729;SDS011;26418;50.070;8.436;2023-01-09T04:26:32;0.55;;;0.22;;
40729;SDS011;26418;50.070;8.436;2023-01-09T04:28:58;2.38;;;0.40;;
40729;SDS011;26418;50.070;8.436;2023-01-09T04:31:24;0.40;;;0.20;;
40729;SDS011;26418;50.070;8.436;2023-01-09T04:33:50;0.73;;;0.30;;
40729;SDS011;26418;50.070;8.436;2023-01-09T04:36:15;0.70;;;0.25;;
40729;SDS011;26418;50.070;8.436;2023-01-09T04:38:41;0.32;;;0.20;;
40729;SDS011;26418;50.070;8.436;2023-01-09T04:41:07;1.08;;;0.38;;
40729;SDS011;26418;50.070;8.436;2023-01-09T04:43:32;0.73;;;0.30;;
40729;SDS011;26418;50.070;8.436;2023-01-09T04:45:58;3.97;;;0.55;;
40729;SDS011;26418;50.070;8.436;2023-01-09T04:48:23;1.60;;;0.28;;
40729;SDS011;26418;50.070;8.436;2023-01-09T04:50:49;0.73;;;0.60;;
40729;SDS011;26418;50.070;8.436;2023-01-09T04:53:14;1.17;;;0.65;;
40729;SDS011;26418;50.070;8.436;2023-01-09T04:55:40;1.23;;;0.50;;
40729;SDS011;26418;50.070;8.436;2023-01-09T04:58:06;1.05;;;0.45;;
40729;SDS011;26418;50.070;8.436;2023-01-09T05:00:32;0.80;;;0.50;;
40729;SDS011;26418;50.070;8.436;2023-01-09T05:02:58;1.75;;;0.82;;
40729;SDS011;26418;50.070;8.436;2023-01-09T05:05:24;1.30;;;0.52;;
40729;SDS011;26418;50.070;8.436;2023-01-09T05:07:49;1.02;;;0.40;;
40729;SDS011;26418;50.070;8.436;2023-01-09T05:10:15;2.70;;;1.00;;
40729;SDS011;26418;50.070;8.436;2023-01-09T05:12:41;1.38;;;0.70;;
40729;SDS011;26418;50.070;8.436;2023-01-09T05:15:07;0.75;;;0.40;;
40729;SDS011;26418;50.070;8.436;2023-01-09T05:17:33;1.17;;;0.40;;
40729;SDS011;26418;50.070;8.436;2023-01-09T05:19:59;0.75;;;0.40;;
40729;SDS011;26418;50.070;8.436;2023-01-09T05:22:27;0.55;;;0.30;;
40729;SDS011;26418;50.070;8.436;2023-01-09T05:24:53;0.85;;;0.30;;
40729;SDS011;26418;50.070;8.436;2023-01-09T05:27:18;0.40;;;0.28;;
40729;SDS011;26418;50.070;8.436;2023-01-09T05:29:44;1.55;;;0.98;;
40729;SDS011;26418;50.070;8.436;2023-01-09T05:32:10;1.77;;;0.47;;
40729;SDS011;26418;50.070;8.436;2023-01-09T05:34:35;0.88;;;0.35;;
40729;SDS011;26418;50.070;8.436;2023-01-09T05:37:01;0.73;;;0.30;;
40729;SDS011;26418;50.070;8.436;2023-01-09T05:39:26;0.70;;;0.20;;
40729;SDS011;26418;50.070;8.436;2023-01-09T05:41:52;1.42;;;0.40;;
40729;SDS011;26418;50.070;8.436;2023-01-09T05:44:18;1.17;;;0.30;;
40729;SDS011;26418;50.070;8.436;2023-01-09T05:46:43;1.48;;;0.98;;
40729;SDS011;26418;50.070;8.436;2023-01-09T05:49:09;1.05;;;0.40;;
40729;SDS011;26418;50.070;8.436;2023-01-09T05:51:34;4.07;;;0.68;;
40729;SDS011;26418;50.070;8.436;2023-01-09T05:54:00;2.83;;;0.40;;
40729;SDS011;26418;50.070;8.436;2023-01-09T05:56:26;1.63;;;0.40;;
40729;SDS011;26418;50.070;8.436;2023-01-09T05:58:54;3.55;;;0.40;;
40729;SDS011;26418;50.070;8.436;2023-01-09T06:01:19;2.20;;;0.60;;
40729;SDS011;26418;50.070;8.436;2023-01-09T06:03:45;2.53;;;0.40;;
40729;SDS011;26418;50.070;8.436;2023-01-09T06:06:11;4.13;;;0.88;;
40729;SDS011;26418;50.070;8.436;2023-01-09T06:08:36;7.22;;;0.75;;
40729;SDS011;26418;50.070;8.436;2023-01-09T06:11:02;3.78;;;0.60;;
40729;SDS011;26418;50.070;8.436;2023-01-09T06:13:27;2.88;;;0.77;;
40729;SDS011;26418;50.070;8.436;2023-01-09T06:15:53;2.17;;;0.60;;
40729;SDS011;26418;50.070;8.436;2023-01-09T06:18:19;3.53;;;0.75;;
40729;SDS011;26418;50.070;8.436;2023-01-09T06:20:44;2.47;;;0.50;;
40729;SDS011;26418;50.070;8.436;2023-01-09T06:23:10;1.25;;;0.47;;
40729;SDS011;26418;50.070;8.436;2023-01-09T06:25:35;1.55;;;0.60;;
40729;SDS011;26418;50.070;8.436;2023-01-09T06:28:01;0.85;;;0.30;;
40729;SDS011;26418;50.070;8.436;2023-01-09T06:30:26;2.85;;;0.50;;
40729;SDS011;26418;50.070;8.436;2023-01-09T06:32:52;1.92;;;0.50;;
40729;SDS011;26418;50.070;8.436;2023-01-09T06:35:17;0.73;;;0.30;;
40729;SDS011;26418;50.070;8.436;2023-01-09T06:37:45;2.65;;;0.50;;
40729;SDS011;26418;50.070;8.436;2023-01-09T06:40:11;1.75;;;0.65;;
40729;SDS011;26418;50.070;8.436;2023-01-09T06:42:38;1.52;;;0.70;;
40729;SDS011;26418;50.070;8.436;2023-01-09T06:45:03;4.50;;;0.60;;
40729;SDS011;26418;50.070;8.436;2023-01-09T06:47:29;3.15;;;0.68;;
40729;SDS011;26418;50.070;8.436;2023-01-09T06:49:55;1.52;;;0.70;;
40729;SDS011;26418;50.070;8.436;2023-01-09T06:52:22;0.93;;;0.50;;
40729;SDS011;26418;50.070;8.436;2023-01-09T06:54:47;4.10;;;0.80;;
40729;SDS011;26418;50.070;8.436;2023-01-09T06:57:13;3.97;;;1.05;;
40729;SDS011;26418;50.070;8.436;2023-01-09T06:59:40;2.22;;;0.93;;
40729;SDS011;26418;50.070;8.436;2023-01-09T07:02:08;3.60;;;0.60;;
40729;SDS011;26418;50.070;8.436;2023-01-09T07:04:41;2.15;;;0.70;;
40729;SDS011;26418;50.070;8.436;2023-01-09T07:07:07;2.60;;;0.88;;
40729;SDS011;26418;50.070;8.436;2023-01-09T07:09:33;3.38;;;1.08;;
40729;SDS011;26418;50.070;8.436;2023-01-09T07:11:58;3.35;;;0.85;;
40729;SDS011;26418;50.070;8.436;2023-01-09T07:14:24;4.20;;;1.10;;
40729;SDS011;26418;50.070;8.436;2023-01-09T07:16:49;2.88;;;0.85;;
40729;SDS011;26418;50.070;8.436;2023-01-09T07:19:15;5.47;;;0.95;;
40729;SDS011;26418;50.070;8.436;2023-01-09T07:21:40;5.63;;;1.70;;
40729;SDS011;26418;50.070;8.436;2023-01-09T07:24:06;5.15;;;1.15;;
40729;SDS011;26418;50.070;8.436;2023-01-09T07:26:32;2.28;;;1.02;;
40729;SDS011;26418;50.070;8.436;2023-01-09T07:28:57;5.40;;;1.20;;
40729;SDS011;26418;50.070;8.436;2023-01-09T07:31:23;7.05;;;1.05;;
40729;SDS011;26418;50.070;8.436;2023-01-09T07:33:48;4.97;;;1.23;;
40729;SDS011;26418;50.070;8.436;2023-01-09T07:36:14;7.88;;;1.02;;
40729;SDS011;26418;50.070;8.436;2023-01-09T07:38:39;3.38;;;1.05;;
40729;SDS011;26418;50.070;8.436;2023-01-09T07:41:05;4.80;;;1.20;;
40729;SDS011;26418;50.070;8.436;2023-01-09T07:43:31;4.13;;;1.13;;
40729;SDS011;26418;50.070;8.436;2023-01-09T07:45:56;3.80;;;1.30;;
40729;SDS011;26418;50.070;8.436;2023-01-09T07:48:22;3.67;;;0.90;;
40729;SDS011;26418;50.070;8.436;2023-01-09T07:50:47;6.05;;;1.38;;
40729;SDS011;26418;50.070;8.436;2023-01-09T07:53:13;3.28;;;0.90;;
40729;SDS011;26418;50.070;8.436;2023-01-09T07:55:40;2.80;;;0.70;;
40729;SDS011;26418;50.070;8.436;2023-01-09T07:58:06;2.80;;;1.05;;
40729;SDS011;26418;50.070;8.436;2023-01-09T08:00:32;7.95;;;1.48;;
40729;SDS011;26418;50.070;8.436;2023-01-09T08:02:57;4.95;;;1.27;;
40729;SDS011;26418;50.070;8.436;2023-01-09T08:05:23;4.25;;;0.75;;
40729;SDS011;26418;50.070;8.436;2023-01-09T08:07:49;5.28;;;0.73;;
40729;SDS011;26418;50.070;8.436;2023-01-09T08:10:15;4.95;;;1.13;;
40729;SDS011;26418;50.070;8.436;2023-01-09T08:12:44;3.35;;;0.70;;
40729;SDS011;26418;50.070;8.436;2023-01-09T08:15:10;1.88;;;0.65;;
40729;SDS011;26418;50.070;8.436;2023-01-09T08:17:36;4.05;;;1.45;;
40729;SDS011;26418;50.070;8.436;2023-01-09T08:20:03;4.40;;;1.23;;
40729;SDS011;26418;50.070;8.436;2023-01-09T08:22:29;4.72;;;1.27;;
40729;SDS011;26418;50.070;8.436;2023-01-09T08:24:54;6.00;;;1.10;;
40729;SDS011;26418;50.070;8.436;2023-01-09T08:27:20;6.53;;;1.00;;
40729;SDS011;26418;50.070;8.436;2023-01-09T08:29:45;4.95;;;0.80;;
40729;SDS011;26418;50.070;8.436;2023-01-09T08:32:11;0.85;;;0.43;;
40729;SDS011;26418;50.070;8.436;2023-01-09T08:34:36;5.85;;;0.55;;
40729;SDS011;26418;50.070;8.436;2023-01-09T08:37:02;1.52;;;0.50;;
40729;SDS011;26418;50.070;8.436;2023-01-09T08:39:27;1.60;;;0.70;;
40729;SDS011;26418;50.070;8.436;2023-01-09T08:41:52;2.80;;;0.77;;
40729;SDS011;26418;50.070;8.436;2023-01-09T08:44:36;3.22;;;0.77;;
40729;SDS011;26418;50.070;8.436;2023-01-09T08:47:21;1.80;;;0.63;;
40729;SDS011;26418;50.070;8.436;2023-01-09T08:49:48;2.03;;;0.65;;
40729;SDS011;26418;50.070;8.436;2023-01-09T08:52:14;4.65;;;0.60;;
40729;SDS011;26418;50.070;8.436;2023-01-09T08:54:39;3.97;;;1.08;;
40729;SDS011;26418;50.070;8.436;2023-01-09T08:57:05;2.55;;;0.65;;
40729;SDS011;26418;50.070;8.436;2023-01-09T08:59:31;2.35;;;0.88;;
40729;SDS011;26418;50.070;8.436;2023-01-09T09:01:57;4.78;;;0.80;;
40729;SDS011;26418;50.070;8.436;2023-01-09T09:04:23;1.63;;;0.57;;
40729;SDS011;26418;50.070;8.436;2023-01-09T09:06:49;2.50;;;0.45;;
40729;SDS011;26418;50.070;8.436;2023-01-09T09:09:14;3.47;;;0.70;;
40729;SDS011;26418;50.070;8.436;2023-01-09T09:11:40;1.92;;;1.02;;
40729;SDS011;26418;50.070;8.436;2023-01-09T09:14:06;1.50;;;0.50;;
40729;SDS011;26418;50.070;8.436;2023-01-09T09:17:07;2.92;;;0.45;;
40729;SDS011;26418;50.070;8.436;2023-01-09T09:19:33;3.47;;;0.60;;
40729;SDS011;26418;50.070;8.436;2023-01-09T09:21:58;1.10;;;0.57;;
40729;SDS011;26418;50.070;8.436;2023-01-09T09:24:24;2.00;;;0.35;;
40729;SDS011;26418;50.070;8.436;2023-01-09T09:26:49;1.20;;;0.30;;
40729;SDS011;26418;50.070;8.436;2023-01-09T09:29:15;1.67;;;0.20;;
40729;SDS011;26418;50.070;8.436;2023-01-09T09:31:41;2.70;;;0.20;;
40729;SDS011;26418;50.070;8.436;2023-01-09T09:34:06;1.13;;;0.20;;
40729;SDS011;26418;50.070;8.436;2023-01-09T09:36:32;9.48;;;0.60;;
40729;SDS011;26418;50.070;8.436;2023-01-09T09:38:58;1.17;;;0.50;;
40729;SDS011;26418;50.070;8.436;2023-01-09T09:53:02;5.70;;;0.40;;
40729;SDS011;26418;50.070;8.436;2023-01-09T09:55:36;2.00;;;0.52;;
40729;SDS011;26418;50.070;8.436;2023-01-09T09:58:12;1.70;;;0.43;;
40729;SDS011;26418;50.070;8.436;2023-01-09T10:00:46;1.00;;;0.40;;
40729;SDS011;26418;50.070;8.436;2023-01-09T10:05:55;0.80;;;0.30;;
40729;SDS011;26418;50.070;8.436;2023-01-09T10:11:01;1.83;;;0.50;;
40729;SDS011;26418;50.070;8.436;2023-01-09T10:13:29;4.30;;;0.60;;
40729;SDS011;26418;50.070;8.436;2023-01-09T10:24:52;2.00;;;0.30;;
40729;SDS011;26418;50.070;8.436;2023-01-09T10:33:10;2.33;;;0.50;;
40729;SDS011;26418;50.070;8.436;2023-01-09T10:38:37;6.28;;;0.80;;
40729;SDS011;26418;50.070;8.436;2023-01-09T10:46:09;3.55;;;0.45;;
40729;SDS011;26418;50.070;8.436;2023-01-09T10:48:44;0.65;;;0.40;;
40729;SDS011;26418;50.070;8.436;2023-01-09T10:51:18;1.23;;;0.52;;
40729;SDS011;26418;50.070;8.436;2023-01-09T10:53:54;3.33;;;0.70;;
40729;SDS011;26418;50.070;8.436;2023-01-09T10:56:27;1.63;;;0.55;;
40729;SDS011;26418;50.070;8.436;2023-01-09T10:58:56;2.33;;;0.63;;
40729;SDS011;26418;50.070;8.436;2023-01-09T11:01:26;3.08;;;0.60;;
40729;SDS011;26418;50.070;8.436;2023-01-09T11:03:55;2.20;;;0.60;;
40729;SDS011;26418;50.070;8.436;2023-01-09T11:06:36;3.53;;;0.70;;
40729;SDS011;26418;50.070;8.436;2023-01-09T11:09:11;2.92;;;0.73;;
40729;SDS011;26418;50.070;8.436;2023-01-09T11:11:39;2.97;;;0.68;;
40729;SDS011;26418;50.070;8.436;2023-01-09T11:14:11;3.55;;;0.93;;
40729;SDS011;26418;50.070;8.436;2023-01-09T11:16:51;2.35;;;0.75;;
40729;SDS011;26418;50.070;8.436;2023-01-09T11:19:25;1.38;;;0.80;;
40729;SDS011;26418;50.070;8.436;2023-01-09T11:22:05;2.30;;;0.50;;
40729;SDS011;26418;50.070;8.436;2023-01-09T11:24:33;2.28;;;0.75;;
40729;SDS011;26418;50.070;8.436;2023-01-09T11:32:48;2.50;;;0.80;;
40729;SDS011;26418;50.070;8.436;2023-01-09T11:35:16;1.02;;;0.55;;
40729;SDS011;26418;50.070;8.436;2023-01-09T11:37:44;1.52;;;0.63;;
40729;SDS011;26418;50.070;8.436;2023-01-09T11:40:15;4.70;;;0.68;;
40729;SDS011;26418;50.070;8.436;2023-01-09T11:43:03;5.32;;;0.93;;
40729;SDS011;26418;50.070;8.436;2023-01-09T11:45:48;1.75;;;0.85;;
40729;SDS011;26418;50.070;8.436;2023-01-09T11:48:17;2.40;;;0.70;;
40729;SDS011;26418;50.070;8.436;2023-01-09T11:50:55;1.38;;;0.47;;
40729;SDS011;26418;50.070;8.436;2023-01-09T11:53:23;3.30;;;0.77;;
40729;SDS011;26418;50.070;8.436;2023-01-09T11:58:21;2.97;;;0.73;;
40729;SDS011;26418;50.070;8.436;2023-01-09T12:03:26;2.67;;;0.68;;
40729;SDS011;26418;50.070;8.436;2023-01-09T12:06:15;4.50;;;0.60;;
40729;SDS011;26418;50.070;8.436;2023-01-09T12:08:59;1.63;;;0.40;;
40729;SDS011;26418;50.070;8.436;2023-01-09T12:12:01;2.38;;;0.90;;
40729;SDS011;26418;50.070;8.436;2023-01-09T12:17:18;1.40;;;0.50;;
40729;SDS011;26418;50.070;8.436;2023-01-09T12:20:51;4.80;;;1.08;;
40729;SDS011;26418;50.070;8.436;2023-01-09T12:28:34;4.55;;;0.90;;
40729;SDS011;26418;50.070;8.436;2023-01-09T12:45:00;5.25;;;1.38;;
40729;SDS011;26418;50.070;8.436;2023-01-09T12:47:48;2.55;;;0.55;;
40729;SDS011;26418;50.070;8.436;2023-01-09T12:50:29;5.03;;;0.68;;
40729;SDS011;26418;50.070;8.436;2023-01-09T12:53:46;2.83;;;1.02;;
40729;SDS011;26418;50.070;8.436;2023-01-09T12:56:20;6.72;;;1.52;;
40729;SDS011;26418;50.070;8.436;2023-01-09T12:59:00;5.15;;;1.08;;
40729;SDS011;26418;50.070;8.436;2023-01-09T13:02:04;2.77;;;0.97;;
40729;SDS011;26418;50.070;8.436;2023-01-09T13:04:36;3.13;;;0.95;;
40729;SDS011;26418;50.070;8.436;2023-01-09T13:07:23;1.42;;;0.30;;
40729;SDS011;26418;50.070;8.436;2023-01-09T13:10:26;4.25;;;0.50;;
40729;SDS011;26418;50.070;8.436;2023-01-09T13:12:57;3.45;;;0.50;;
40729;SDS011;26418;50.070;8.436;2023-01-09T13:20:49;4.68;;;1.60;;
40729;SDS011;26418;50.070;8.436;2023-01-09T13:23:21;1.63;;;0.73;;
40729;SDS011;26418;50.070;8.436;2023-01-09T13:26:30;1.45;;;0.40;;
40729;SDS011;26418;50.070;8.436;2023-01-09T13:28:57;5.18;;;2.25;;
40729;SDS011;26418;50.070;8.436;2023-01-09T13:34:16;1.08;;;0.47;;
40729;SDS011;26418;50.070;8.436;2023-01-09T13:36:47;0.53;;;0.30;;
40729;SDS011;26418;50.070;8.436;2023-01-09T13:39:27;2.10;;;0.52;;
40729;SDS011;26418;50.070;8.436;2023-01-09T13:42:02;1.10;;;0.38;;
40729;SDS011;26418;50.070;8.436;2023-01-09T13:44:49;0.85;;;0.57;;
40729;SDS011;26418;50.070;8.436;2023-01-09T13:47:25;3.13;;;0.40;;
40729;SDS011;26418;50.070;8.436;2023-01-09T13:55:22;1.63;;;0.20;;
40729;SDS011;26418;50.070;8.436;2023-01-09T14:03:19;2.53;;;0.70;;
40729;SDS011;26418;50.070;8.436;2023-01-09T14:08:29;2.42;;;0.38;;
40729;SDS011;26418;50.070;8.436;2023-01-09T14:10:59;1.75;;;0.35;;
40729;SDS011;26418;50.070;8.436;2023-01-09T14:16:00;2.55;;;0.25;;
40729;SDS011;26418;50.070;8.436;2023-01-09T14:18:29;1.05;;;0.75;;
40729;SDS011;26418;50.070;8.436;2023-01-09T14:21:16;0.57;;;0.30;;
40729;SDS011;26418;50.070;8.436;2023-01-09T14:23:57;1.20;;;0.52;;
40729;SDS011;26418;50.070;8.436;2023-01-09T14:34:49;1.67;;;0.52;;
40729;SDS011;26418;50.070;8.436;2023-01-09T14:37:21;1.40;;;0.30;;
40729;SDS011;26418;50.070;8.436;2023-01-09T14:39:48;1.80;;;0.25;;
40729;SDS011;26418;50.070;8.436;2023-01-09T14:42:17;0.95;;;0.40;;
40729;SDS011;26418;50.070;8.436;2023-01-09T14:44:52;0.80;;;0.35;;
40729;SDS011;26418;50.070;8.436;2023-01-09T14:55:17;1.92;;;0.45;;
40729;SDS011;26418;50.070;8.436;2023-01-09T14:57:48;1.15;;;0.57;;
40729;SDS011;26418;50.070;8.436;2023-01-09T15:00:18;0.82;;;0.45;;
40729;SDS011;26418;50.070;8.436;2023-01-09T15:02:46;1.10;;;0.30;;
40729;SDS011;26418;50.070;8.436;2023-01-09T15:05:13;2.47;;;0.50;;
40729;SDS011;26418;50.070;8.436;2023-01-09T15:07:48;1.38;;;0.40;;
40729;SDS011;26418;50.070;8.436;2023-01-09T15:10:21;1.00;;;0.43;;
40729;SDS011;26418;50.070;8.436;2023-01-09T15:12:50;3.05;;;0.65;;
40729;SDS011;26418;50.070;8.436;2023-01-09T15:15:19;0.70;;;0.20;;
40729;SDS011;26418;50.070;8.436;2023-01-09T15:17:51;2.30;;;0.43;;
40729;SDS011;26418;50.070;8.436;2023-01-09T15:20:21;1.52;;;0.43;;
40729;SDS011;26418;50.070;8.436;2023-01-09T15:22:50;1.05;;;0.30;;
40729;SDS011;26418;50.070;8.436;2023-01-09T15:25:30;0.88;;;0.30;;
40729;SDS011;26418;50.070;8.436;2023-01-09T15:27:57;5.28;;;0.60;;
40729;SDS011;26418;50.070;8.436;2023-01-09T15:30:25;0.93;;;0.30;;
40729;SDS011;26418;50.070;8.436;2023-01-09T15:32:58;0.65;;;0.40;;
40729;SDS011;26418;50.070;8.436;2023-01-09T15:35:26;3.00;;;0.47;;
40729;SDS011;26418;50.070;8.436;2023-01-09T15:37:53;0.85;;;0.32;;
40729;SDS011;26418;50.070;8.436;2023-01-09T15:40:22;1.55;;;0.40;;
40729;SDS011;26418;50.070;8.436;2023-01-09T15:42:52;0.63;;;0.40;;
40729;SDS011;26418;50.070;8.436;2023-01-09T15:48:17;0.63;;;0.30;;
40729;SDS011;26418;50.070;8.436;2023-01-09T15:50:47;1.63;;;0.47;;
40729;SDS011;26418;50.070;8.436;2023-01-09T15:53:16;2.30;;;0.40;;
40729;SDS011;26418;50.070;8.436;2023-01-09T15:55:44;3.85;;;0.95;;
40729;SDS011;26418;50.070;8.436;2023-01-09T15:58:35;2.13;;;0.90;;
40729;SDS011;26418;50.070;8.436;2023-01-09T16:01:43;2.55;;;0.65;;
40729;SDS011;26418;50.070;8.436;2023-01-09T16:04:07;1.42;;;0.43;;
40729;SDS011;26418;50.070;8.436;2023-01-09T16:06:36;3.25;;;1.02;;
40729;SDS011;26418;50.070;8.436;2023-01-09T16:09:28;1.90;;;0.60;;
40729;SDS011;26418;50.070;8.436;2023-01-09T16:11:55;3.70;;;0.50;;
40729;SDS011;26418;50.070;8.436;2023-01-09T16:14:29;0.83;;;0.50;;
40729;SDS011;26418;50.070;8.436;2023-01-09T16:17:06;2.88;;;0.90;;
40729;SDS011;26418;50.070;8.436;2023-01-09T16:24:53;2.75;;;0.95;;
40729;SDS011;26418;50.070;8.436;2023-01-09T16:29:51;2.88;;;1.38;;
40729;SDS011;26418;50.070;8.436;2023-01-09T16:32:21;2.90;;;1.20;;
40729;SDS011;26418;50.070;8.436;2023-01-09T16:34:56;2.60;;;1.00;;
40729;SDS011;26418;50.070;8.436;2023-01-09T16:37:29;3.45;;;1.00;;
40729;SDS011;26418;50.070;8.436;2023-01-09T16:42:43;2.15;;;0.93;;
40729;SDS011;26418;50.070;8.436;2023-01-09T16:45:34;2.63;;;1.08;;
40729;SDS011;26418;50.070;8.436;2023-01-09T16:48:20;3.25;;;0.82;;
40729;SDS011;26418;50.070;8.436;2023-01-09T16:50:46;6.72;;;0.63;;
40729;SDS011;26418;50.070;8.436;2023-01-09T16:53:13;3.45;;;0.40;;
40729;SDS011;26418;50.070;8.436;2023-01-09T16:55:40;2.55;;;0.80;;
40729;SDS011;26418;50.070;8.436;2023-01-09T16:58:17;1.40;;;0.55;;
40729;SDS011;26418;50.070;8.436;2023-01-09T17:00:48;3.72;;;0.60;;
40729;SDS011;26418;50.070;8.436;2023-01-09T17:03:13;4.63;;;0.70;;
40729;SDS011;26418;50.070;8.436;2023-01-09T17:05:40;2.05;;;1.00;;
40729;SDS011;26418;50.070;8.436;2023-01-09T17:08:25;1.38;;;0.90;;
40729;SDS011;26418;50.070;8.436;2023-01-09T17:10:53;2.25;;;1.00;;
40729;SDS011;26418;50.070;8.436;2023-01-09T17:13:20;4.90;;;1.02;;
40729;SDS011;26418;50.070;8.436;2023-01-09T17:15:46;2.20;;;0.65;;
40729;SDS011;26418;50.070;8.436;2023-01-09T17:18:15;3.58;;;0.60;;
40729;SDS011;26418;50.070;8.436;2023-01-09T17:20:47;1.60;;;0.70;;
40729;SDS011;26418;50.070;8.436;2023-01-09T17:23:17;4.78;;;0.90;;
40729;SDS011;26418;50.070;8.436;2023-01-09T17:25:45;1.35;;;0.77;;
40729;SDS011;26418;50.070;8.436;2023-01-09T17:28:30;2.28;;;1.00;;
40729;SDS011;26418;50.070;8.436;2023-01-09T17:30:56;7.38;;;2.53;;
40729;SDS011;26418;50.070;8.436;2023-01-09T17:33:22;4.55;;;1.60;;
40729;SDS011;26418;50.070;8.436;2023-01-09T17:35:48;3.22;;;1.40;;
40729;SDS011;26418;50.070;8.436;2023-01-09T17:38:14;4.57;;;1.25;;
40729;SDS011;26418;50.070;8.436;2023-01-09T17:40:39;3.92;;;1.27;;